Monte Azul, Brazil
Current Conditions -  °F | °C
As of 8:00 AM on Thursday 18 Dec 2014 (Local Time) from SBUF Reporting Station
Light Rain Light Rain  
Wind Chill: 77°   Ceiling: 1600
Heat Index: 78°   Visibility: 6mi
Dew Point: 73°   Wind: 5mph
Humidity: 89%   Direction: 190°S
Pressure: 29.97"   Gusts: NA
Location:  10.03°S, 38.2°W
Report Text: SBUF 181100Z 19004KT 9999 -RA BKN016 BKN070 25/23 Q1015
Loading
Personal Weather Stations






























Interactive Weather Map New forecast layout! Learn more

10-Day Weather Forecast

Advertisements
Track Severe Weather on mobile